Time;durP1;ratioP1;P1;durP2;ratioP2;P2;SDS_P1;SDS_P2;PMS_P1;PMS_P2;Temp;Humidity;BMP_temperature;BMP_pressure;BME280_temperature;BME280_humidity;BME280_pressure;Samples;Min_cycle;Max_cycle;Signal;HPM_P1;HPM_P2
2022/07/12 00:00:25;;;;;;;2.60;2.07;;;;;;;16.13;88.40;101448.00;5074803;28;20735;-77
2022/07/12 00:02:52;;;;;;;2.40;2.30;;;;;;;16.10;89.10;101433.16;5070793;28;20225;-77
2022/07/12 00:05:20;;;;;;;2.30;2.20;;;;;;;16.07;89.29;101413.03;5062992;28;20201;-77
2022/07/12 00:07:46;;;;;;;2.70;2.50;;;;;;;16.05;89.69;101406.97;5074613;28;20228;-77
2022/07/12 00:10:13;;;;;;;2.30;2.17;;;;;;;16.07;89.76;101401.63;5074870;28;20208;-77
2022/07/12 00:12:40;;;;;;;2.67;2.47;;;;;;;16.05;89.45;101411.34;5074355;28;20744;-77
2022/07/12 00:15:09;;;;;;;3.93;2.30;;;;;;;16.03;89.50;101416.63;5074370;28;20209;-77
2022/07/12 00:17:36;;;;;;;4.23;2.47;;;;;;;16.03;89.28;101421.91;5074480;28;20221;-76
2022/07/12 00:20:02;;;;;;;2.40;2.30;;;;;;;16.02;89.42;101421.97;5074761;28;20212;-77
2022/07/12 00:22:30;;;;;;;2.60;2.27;;;;;;;16.02;90.05;101409.66;5074718;28;20277;-77
2022/07/12 00:24:56;;;;;;;2.83;2.23;;;;;;;16.04;89.78;101404.34;5074559;28;20206;-77
2022/07/12 00:27:23;;;;;;;2.20;2.10;;;;;;;16.01;89.84;101414.94;5074512;28;20229;-77
2022/07/12 00:29:49;;;;;;;2.90;2.50;;;;;;;15.88;89.32;101424.94;5075153;28;20205;-77
2022/07/12 00:32:15;;;;;;;2.27;2.17;;;;;;;15.88;89.42;101417.06;5074589;28;20219;-77
2022/07/12 00:34:42;;;;;;;2.50;2.30;;;;;;;15.87;89.69;101413.53;5062964;28;20268;-77
2022/07/12 00:37:08;;;;;;;4.47;2.50;;;;;;;15.85;90.00;101402.19;5068726;28;20197;-77
2022/07/12 00:39:36;;;;;;;2.67;2.47;;;;;;;15.91;90.36;101397.66;5073975;28;20287;-77
2022/07/12 00:42:03;;;;;;;2.40;2.30;;;;;;;15.88;90.72;101377.56;5073719;28;20213;-77
2022/07/12 00:44:30;;;;;;;2.50;2.30;;;;;;;15.92;91.09;101380.97;5073956;28;20670;-77
2022/07/12 00:46:57;;;;;;;2.40;2.20;;;;;;;15.93;91.04;101378.28;5073882;28;20263;-77
2022/07/12 00:49:25;;;;;;;2.47;2.27;;;;;;;15.90;90.93;101378.38;5073947;28;20616;-77
2022/07/12 00:51:54;;;;;;;2.47;2.10;;;;;;;15.96;90.59;101385.25;5073801;28;20569;-77
2022/07/12 00:54:20;;;;;;;2.33;2.17;;;;;;;15.97;90.64;101387.81;5073818;28;20209;-77
2022/07/12 00:56:48;;;;;;;2.53;2.27;;;;;;;16.00;91.18;101368.47;5073042;28;20751;-77
2022/07/12 00:59:15;;;;;;;2.60;2.47;;;;;;;16.00;91.45;101363.22;5073707;28;20263;-77
2022/07/12 01:01:42;;;;;;;2.13;2.00;;;;;;;15.97;91.48;101350.09;5073627;28;20209;-75
2022/07/12 01:04:09;;;;;;;2.40;2.20;;;;;;;16.01;91.24;101357.00;5065573;28;20203;-77
2022/07/12 01:06:36;;;;;;;2.50;2.30;;;;;;;16.01;91.00;101355.25;5064878;28;20227;-77
2022/07/12 01:09:03;;;;;;;3.70;2.30;;;;;;;16.01;90.94;101364.91;5073353;28;20287;-76
2022/07/12 01:11:30;;;;;;;2.50;2.40;;;;;;;16.00;90.96;101363.22;5073213;28;20206;-76
2022/07/12 01:13:58;;;;;;;2.97;2.77;;;;;;;15.96;91.26;101364.19;5073604;28;20250;-76
2022/07/12 01:16:25;;;;;;;2.83;2.63;;;;;;;15.97;91.59;101342.22;5073146;28;20294;-77
2022/07/12 01:18:52;;;;;;;2.47;2.33;;;;;;;15.98;91.33;101352.72;5073466;28;20221;-77
2022/07/12 01:21:20;;;;;;;4.43;2.40;;;;;;;15.95;91.48;101344.03;5072970;28;20205;-77
2022/07/12 01:23:49;;;;;;;3.57;2.60;;;;;;;15.98;91.65;101342.16;5073210;28;20292;-77
2022/07/12 01:26:16;;;;;;;3.13;2.83;;;;;;;16.00;91.99;101337.72;5073078;28;20311;-77
2022/07/12 01:28:42;;;;;;;2.90;2.53;;;;;;;15.99;91.94;101327.22;5073019;28;20290;-77
2022/07/12 01:31:09;;;;;;;2.57;2.47;;;;;;;16.00;92.45;101321.06;5073200;28;20210;-77
2022/07/12 01:33:36;;;;;;;2.73;2.53;;;;;;;16.03;92.70;101313.94;5064937;28;20213;-76
2022/07/12 01:36:03;;;;;;;2.77;2.60;;;;;;;15.99;93.03;101304.38;5064318;28;20204;-77
2022/07/12 01:38:29;;;;;;;2.60;2.40;;;;;;;16.03;93.31;101302.53;5073134;28;20220;-77
2022/07/12 01:40:57;;;;;;;2.63;2.40;;;;;;;16.06;93.12;101297.19;5073227;28;20202;-77
2022/07/12 01:43:23;;;;;;;3.07;2.57;;;;;;;16.06;92.88;101305.94;5072318;28;20262;-77
2022/07/12 01:45:50;;;;;;;2.30;2.20;;;;;;;16.08;92.71;101311.19;5072750;28;20723;-77
2022/07/12 01:48:16;;;;;;;2.57;2.37;;;;;;;16.06;92.68;101323.53;5072496;28;20679;-76
2022/07/12 01:50:43;;;;;;;2.90;2.50;;;;;;;16.05;92.70;101322.69;5072852;28;20351;-76
2022/07/12 01:53:11;;;;;;;3.30;3.00;;;;;;;16.05;92.12;101324.41;5073013;28;20246;-77
2022/07/12 01:55:38;;;;;;;2.00;1.90;;;;;;;16.05;91.32;101345.50;5072722;28;20624;-75
2022/07/12 01:58:07;;;;;;;2.37;2.17;;;;;;;16.07;91.07;101354.22;5072388;28;20242;-76
2022/07/12 02:00:33;;;;;;;2.83;2.03;;;;;;;16.03;91.21;101363.09;5072557;28;20208;-76
2022/07/12 02:03:00;;;;;;;2.67;2.47;;;;;;;16.00;91.19;101356.16;5067654;28;20637;-76
2022/07/12 02:05:26;;;;;;;3.80;3.53;;;;;;;15.97;91.19;101343.06;5061324;28;20211;-76
2022/07/12 02:07:54;;;;;;;2.40;2.27;;;;;;;15.98;91.19;101341.31;5072527;28;20237;-77
2022/07/12 02:10:20;;;;;;;2.97;2.77;;;;;;;15.97;90.96;101350.09;5072924;28;20212;-76
2022/07/12 02:12:47;;;;;;;2.77;2.57;;;;;;;15.95;91.40;101352.78;5072326;28;20208;-76
2022/07/12 02:15:14;;;;;;;2.67;2.53;;;;;;;15.95;91.70;101342.25;5072262;28;20618;-77
2022/07/12 02:17:41;;;;;;;2.87;2.67;;;;;;;15.97;91.82;101327.25;5072159;28;20241;-76
2022/07/12 02:20:10;;;;;;;3.20;2.90;;;;;;;15.99;92.00;101314.06;5072708;28;20204;-76
2022/07/12 02:22:37;;;;;;;2.83;2.63;;;;;;;15.98;91.73;101315.84;5072448;28;20211;-77
2022/07/12 02:25:04;;;;;;;3.30;3.00;;;;;;;15.97;91.68;101323.78;5072076;28;20254;-77
2022/07/12 02:27:31;;;;;;;3.03;2.83;;;;;;;15.96;91.77;101317.66;5071871;28;20576;-77
2022/07/12 02:29:57;;;;;;;2.53;2.33;;;;;;;15.98;92.24;101307.09;5072404;28;20742;-77
2022/07/12 02:32:25;;;;;;;3.53;3.23;;;;;;;15.96;92.41;101301.84;5072353;28;20204;-76
2022/07/12 02:34:51;;;;;;;3.33;3.13;;;;;;;15.97;92.52;101295.66;5060311;28;20255;-77
2022/07/12 02:37:18;;;;;;;3.37;3.03;;;;;;;15.96;92.84;101296.59;5068188;28;20201;-77
2022/07/12 02:39:44;;;;;;;2.70;2.50;;;;;;;15.97;92.93;101300.06;5072502;28;20208;-77
2022/07/12 02:42:10;;;;;;;3.40;3.10;;;;;;;16.01;93.32;101294.66;5072540;28;20220;-76
2022/07/12 02:44:37;;;;;;;2.90;2.70;;;;;;;16.04;93.23;101289.34;5072813;28;20200;-75
2022/07/12 02:47:04;;;;;;;2.83;2.63;;;;;;;16.03;92.90;101286.72;5072264;28;20746;-77
2022/07/12 02:49:32;;;;;;;3.20;2.90;;;;;;;15.95;92.64;101302.75;5072964;28;20232;-77
2022/07/12 02:51:58;;;;;;;3.23;2.70;;;;;;;15.92;92.63;101302.84;5072174;28;20226;-76
2022/07/12 02:54:24;;;;;;;3.77;2.87;;;;;;;15.91;92.40;101308.16;5072233;28;20216;-77
2022/07/12 02:56:51;;;;;;;3.90;2.57;;;;;;;15.86;92.72;101309.13;5074303;28;20261;-76
2022/07/12 02:59:17;;;;;;;3.40;2.80;;;;;;;15.84;92.78;101302.19;5076198;28;20221;-77
2022/07/12 03:01:44;;;;;;;3.13;2.80;;;;;;;15.85;92.51;101311.81;5076009;28;20840;-77
2022/07/12 03:04:10;;;;;;;3.43;2.77;;;;;;;15.88;92.50;101319.63;5067969;28;20197;-76
2022/07/12 03:06:38;;;;;;;3.80;2.80;;;;;;;15.86;92.15;101335.47;5067461;28;20205;-77
2022/07/12 03:09:05;;;;;;;3.97;3.27;;;;;;;15.81;92.34;101345.25;5075864;28;20228;-76
2022/07/12 03:11:31;;;;;;;3.20;2.87;;;;;;;15.78;92.59;101340.06;5075674;28;20682;-76
2022/07/12 03:13:57;;;;;;;3.10;2.50;;;;;;;15.79;92.77;101333.03;5075939;28;20251;-76
2022/07/12 03:16:24;;;;;;;3.63;2.77;;;;;;;15.77;93.07;101333.06;5075615;28;20670;-76
2022/07/12 03:18:50;;;;;;;3.27;2.97;;;;;;;15.80;93.13;101337.41;5075662;28;20220;-77
2022/07/12 03:21:17;;;;;;;2.90;2.53;;;;;;;15.78;93.44;101336.59;5075492;28;20258;-77
2022/07/12 03:23:44;;;;;;;3.27;2.97;;;;;;;15.83;93.59;101329.41;5075768;28;20212;-76
2022/07/12 03:26:11;;;;;;;2.73;2.53;;;;;;;15.87;93.79;101325.78;5075671;28;20208;-77
2022/07/12 03:28:37;;;;;;;2.93;2.73;;;;;;;15.86;93.49;101332.84;5075166;28;20282;-76
2022/07/12 03:31:04;;;;;;;4.80;2.80;;;;;;;15.85;93.83;101335.50;5075612;28;20208;-76
2022/07/12 03:33:30;;;;;;;3.00;2.80;;;;;;;15.90;93.69;101336.25;5067451;28;20213;-77
2022/07/12 03:35:57;;;;;;;3.13;2.50;;;;;;;15.89;93.05;101348.53;5066528;28;20193;-76
2022/07/12 03:38:23;;;;;;;2.80;2.50;;;;;;;15.91;92.99;101351.13;5075382;28;20221;-76
2022/07/12 03:40:51;;;;;;;3.90;3.00;;;;;;;15.90;92.87;101359.94;5075104;28;20734;-76
2022/07/12 03:43:17;;;;;;;3.40;3.10;;;;;;;15.87;93.04;101365.28;5075025;28;20284;-76
2022/07/12 03:45:45;;;;;;;5.70;3.93;;;;;;;15.80;93.63;101361.09;5075101;28;20735;-76
2022/07/12 03:48:11;;;;;;;4.00;3.53;;;;;;;15.80;94.03;101356.69;5075018;28;20235;-77
2022/07/12 03:50:38;;;;;;;4.97;2.80;;;;;;;15.81;94.26;101345.25;5075575;28;20261;-77
2022/07/12 03:53:04;;;;;;;3.33;3.03;;;;;;;15.78;94.59;101342.69;5075367;28;20330;-77
2022/07/12 03:55:31;;;;;;;3.93;3.20;;;;;;;15.78;94.90;101333.94;5075058;28;20220;-77
2022/07/12 03:57:59;;;;;;;4.00;3.03;;;;;;;15.85;94.96;101331.09;5074938;28;20224;-76
2022/07/12 04:00:25;;;;;;;3.70;2.80;;;;;;;15.91;94.81;101337.97;5074579;28;20208;-76
2022/07/12 04:02:53;;;;;;;6.50;3.30;;;;;;;15.89;94.55;101353.78;5070463;28;20247;-76
2022/07/12 04:05:20;;;;;;;5.13;3.13;;;;;;;15.89;94.60;101342.41;5062365;28;20208;-76
2022/07/12 04:07:47;;;;;;;3.57;2.80;;;;;;;15.89;94.68;101342.41;5053889;28;20642;-76
2022/07/12 04:10:14;;;;;;;4.50;3.53;;;;;;;15.89;94.99;101335.38;5054706;28;20732;-76
2022/07/12 04:12:41;;;;;;;5.33;3.17;;;;;;;15.89;95.26;101340.63;5054460;28;20202;-76
2022/07/12 04:15:09;;;;;;;5.70;3.53;;;;;;;15.91;95.38;101330.06;5054363;28;20205;-76
2022/07/12 04:17:36;;;;;;;4.20;3.30;;;;;;;15.93;95.58;101325.63;5054376;28;20233;-77
2022/07/12 04:20:03;;;;;;;3.10;2.90;;;;;;;15.97;95.53;101332.53;5054292;28;20663;-76
2022/07/12 04:22:29;;;;;;;3.00;2.60;;;;;;;16.02;95.34;101341.19;5054347;28;20209;-77
2022/07/12 04:24:55;;;;;;;3.10;2.90;;;;;;;16.04;95.17;101344.63;5054304;28;20202;-77
2022/07/12 04:27:22;;;;;;;3.00;2.80;;;;;;;16.09;94.69;101344.50;5053853;28;20206;-76
2022/07/12 04:29:49;;;;;;;4.57;2.90;;;;;;;16.13;94.68;101345.28;5054375;28;20229;-76
2022/07/12 04:32:16;;;;;;;2.80;2.60;;;;;;;16.10;94.97;101348.88;5054606;28;20278;-77
2022/07/12 04:34:43;;;;;;;3.00;2.80;;;;;;;16.12;95.19;101338.31;5062377;28;20206;-76
2022/07/12 04:37:10;;;;;;;5.13;3.60;;;;;;;16.10;95.43;101340.13;5069150;28;20204;-76
2022/07/12 04:39:36;;;;;;;3.83;3.53;;;;;;;16.10;95.43;101348.88;5074209;28;20225;-77
2022/07/12 04:42:03;;;;;;;3.70;3.40;;;;;;;16.13;95.55;101342.66;5073758;28;20255;-76
2022/07/12 04:44:29;;;;;;;3.47;3.27;;;;;;;16.17;95.69;101339.88;5074327;28;20262;-77
2022/07/12 04:46:56;;;;;;;3.37;3.07;;;;;;;16.23;95.76;101342.38;5073911;28;20224;-76
2022/07/12 04:49:24;;;;;;;5.60;3.17;;;;;;;16.27;95.85;101345.75;5073999;28;20282;-77
2022/07/12 04:51:50;;;;;;;3.70;3.40;;;;;;;16.31;95.45;101354.44;5074209;28;20205;-77
2022/07/12 04:54:16;;;;;;;3.93;3.67;;;;;;;16.34;94.89;101373.69;5073933;28;20294;-76
2022/07/12 04:56:43;;;;;;;6.03;4.63;;;;;;;16.38;94.39;101392.91;5073483;28;20211;-76
2022/07/12 04:59:09;;;;;;;5.93;5.40;;;;;;;16.41;93.23;101416.53;5073617;28;20225;-76
2022/07/12 05:01:36;;;;;;;4.27;3.83;;;;;;;16.43;92.68;101441.94;5073489;28;20212;-77
2022/07/12 05:04:02;;;;;;;5.03;4.63;;;;;;;16.47;93.12;101435.69;5065440;28;20200;-77
2022/07/12 05:06:30;;;;;;;3.73;3.43;;;;;;;16.47;93.05;101433.03;5065152;28;20193;-76
2022/07/12 05:08:57;;;;;;;5.87;5.07;;;;;;;16.46;92.34;101449.75;5073390;28;20298;-77
2022/07/12 05:11:24;;;;;;;4.50;4.17;;;;;;;16.53;92.09;101452.22;5073411;28;20671;-76
2022/07/12 05:13:50;;;;;;;5.27;4.87;;;;;;;16.55;92.08;101463.59;5073633;28;20209;-75
2022/07/12 05:16:17;;;;;;;4.90;4.50;;;;;;;16.47;91.86;101461.16;5068203;28;20201;-76
2022/07/12 05:18:43;;;;;;;7.77;4.60;;;;;;;16.37;91.16;101479.00;5063809;28;20209;-76
2022/07/12 05:21:10;;;;;;;5.70;5.13;;;;;;;16.25;91.31;101488.09;5073026;28;20202;-77
2022/07/12 05:23:38;;;;;;;5.10;4.73;;;;;;;16.31;91.57;101487.03;5073339;28;20287;-77
2022/07/12 05:26:05;;;;;;;5.03;4.63;;;;;;;16.44;91.65;101479.69;5073081;28;20235;-77
2022/07/12 05:28:32;;;;;;;4.57;4.17;;;;;;;16.56;91.28;101481.16;5072794;28;20229;-76
2022/07/12 05:30:59;;;;;;;5.23;4.83;;;;;;;16.64;91.24;101493.19;5073024;28;20239;-77
2022/07/12 05:33:25;;;;;;;4.90;4.60;;;;;;;16.50;90.11;101513.78;5073091;28;20294;-76
2022/07/12 05:35:52;;;;;;;5.70;5.20;;;;;;;16.38;90.45;101516.75;5072675;28;20208;-76
2022/07/12 05:38:18;;;;;;;6.10;4.80;;;;;;;16.54;90.61;101504.91;5072783;28;20604;-76
2022/07/12 05:40:46;;;;;;;6.73;5.43;;;;;;;16.57;90.97;101507.47;5072812;28;20208;-76
2022/07/12 05:43:13;;;;;;;5.67;5.10;;;;;;;16.36;90.39;101514.16;5067200;28;20275;-77
2022/07/12 05:45:41;;;;;;;5.10;4.67;;;;;;;16.39;91.46;101487.75;5043322;28;20332;-77
2022/07/12 05:48:08;;;;;;;4.83;4.43;;;;;;;16.53;90.77;101491.75;5050956;28;20707;-77
2022/07/12 05:50:34;;;;;;;4.63;4.23;;;;;;;16.65;90.11;101517.81;5047708;28;20274;-77
2022/07/12 05:55:46;;;;;;;4.93;4.60;;;;;;;16.60;89.85;101540.78;5041143;28;20206;-77
2022/07/12 05:58:13;;;;;;;5.17;4.73;;;;;;;16.59;89.28;101542.56;5040948;28;20775;-76
2022/07/12 06:00:39;;;;;;;7.03;5.03;;;;;;;16.20;90.19;101513.69;5043009;28;20194;-77
2022/07/12 06:03:05;;;;;;;5.90;5.30;;;;;;;16.31;90.85;101500.22;5041879;28;20451;-77
2022/07/12 06:05:32;;;;;;;6.00;4.80;;;;;;;16.56;90.78;101489.06;5041589;28;20698;-76
2022/07/12 06:07:58;;;;;;;5.80;4.87;;;;;;;16.70;90.21;101496.59;5043144;28;20229;-76
2022/07/12 06:10:25;;;;;;;4.43;4.03;;;;;;;16.83;89.48;101522.59;5041715;28;20219;-76
2022/07/12 06:12:53;;;;;;;5.23;4.43;;;;;;;16.83;87.79;101575.34;5042501;28;20264;-77
2022/07/12 06:15:19;;;;;;;5.40;4.77;;;;;;;16.79;87.39;101596.53;5043674;28;20608;-77
2022/07/12 06:17:47;;;;;;;8.17;4.57;;;;;;;16.68;88.08;101565.16;5051035;28;20638;-77
2022/07/12 06:20:14;;;;;;;4.30;4.00;;;;;;;16.82;88.30;101552.50;5046464;28;20249;-77
2022/07/12 06:22:40;;;;;;;5.00;4.60;;;;;;;16.92;87.51;101568.94;5040979;28;20201;-77
2022/07/12 06:25:08;;;;;;;4.40;4.10;;;;;;;16.96;87.24;101582.91;5042358;28;20201;-76
2022/07/12 06:27:35;;;;;;;4.40;4.10;;;;;;;17.00;86.83;101582.78;5041863;28;20646;-76
2022/07/12 06:30:04;;;;;;;4.30;3.90;;;;;;;17.06;86.31;101605.50;5040006;28;20215;-74
2022/07/12 06:32:30;;;;;;;4.57;3.60;;;;;;;17.02;86.25;101615.25;5041529;28;20201;-75
2022/07/12 06:34:57;;;;;;;3.40;3.20;;;;;;;17.17;86.34;101610.50;5042417;28;20197;-75
2022/07/12 06:37:23;;;;;;;3.47;3.17;;;;;;;17.21;86.43;101609.50;5040338;28;20201;-75
2022/07/12 06:39:49;;;;;;;3.20;3.00;;;;;;;17.04;84.83;101644.25;5041541;28;20198;-76
2022/07/12 06:42:29;;;;;;;3.70;3.40;;;;;;;16.84;83.61;101687.81;5041574;28;20202;-75
2022/07/12 06:45:11;;;;;;;3.77;3.57;;;;;;;16.76;80.75;101749.53;5042123;28;20304;-75
2022/07/12 06:47:38;;;;;;;3.70;3.43;;;;;;;16.99;81.35;101770.13;5047262;28;20243;-75
2022/07/12 06:50:05;;;;;;;4.13;3.73;;;;;;;17.10;81.19;101776.00;5045431;28;20275;-77
2022/07/12 06:52:32;;;;;;;4.00;3.70;;;;;;;17.22;80.83;101782.75;5041837;28;20266;-77
2022/07/12 06:54:58;;;;;;;3.70;3.37;;;;;;;17.20;79.36;101825.00;5042886;28;20196;-77
2022/07/12 06:57:26;;;;;;;3.47;3.27;;;;;;;17.39;80.08;101824.56;5042344;28;20647;-77
2022/07/12 06:59:53;;;;;;;3.83;3.53;;;;;;;17.28;78.87;101824.81;5042451;28;20202;-78
2022/07/12 07:02:20;;;;;;;3.73;3.17;;;;;;;17.23;79.33;101832.00;5052289;28;20692;-83
2022/07/12 07:04:47;;;;;;;3.03;2.83;;;;;;;17.10;77.69;101841.97;5058310;28;20236;-82
2022/07/12 07:07:13;;;;;;;3.13;2.93;;;;;;;17.10;78.83;101851.66;5057410;28;20233;-84
2022/07/12 07:09:41;;;;;;;2.93;2.73;;;;;;;17.10;78.39;101847.22;5057233;28;20222;-84
2022/07/12 07:12:08;;;;;;;3.27;3.07;;;;;;;17.12;78.04;101876.22;5056510;28;20206;-82
2022/07/12 07:14:34;;;;;;;2.83;2.63;;;;;;;16.99;76.88;101902.91;5055293;28;20237;-81
2022/07/12 07:17:00;;;;;;;3.03;2.70;;;;;;;17.16;76.79;101902.50;5061381;28;20206;-82
2022/07/12 07:19:28;;;;;;;3.53;3.20;;;;;;;17.27;77.15;101892.56;5069608;28;20276;-79
2022/07/12 07:21:55;;;;;;;3.00;2.80;;;;;;;17.05;76.06;101925.66;5076709;28;20234;-82
2022/07/12 07:24:21;;;;;;;3.53;3.33;;;;;;;17.18;77.03;101900.69;5077228;28;20208;-82
2022/07/12 07:26:48;;;;;;;3.30;3.10;;;;;;;17.22;77.16;101888.31;5076056;28;20624;-78
2022/07/12 07:31:59;;;;;;;3.90;3.50;;;;;;;17.56;76.48;101890.13;5073877;28;20271;-80
2022/07/12 07:34:26;;;;;;;3.70;3.40;;;;;;;17.35;75.97;101902.94;5074043;28;20342;-81
2022/07/12 07:36:53;;;;;;;3.30;3.10;;;;;;;17.13;76.15;101914.94;5073882;28;20244;-81
2022/07/12 07:39:20;;;;;;;4.17;3.90;;;;;;;17.01;77.68;101864.16;5075252;28;20270;-82
2022/07/12 07:41:46;;;;;;;3.80;3.60;;;;;;;17.04;78.29;101835.06;5076482;28;20207;-82
2022/07/12 07:44:13;;;;;;;4.03;3.63;;;;;;;17.21;78.46;101820.63;5079072;28;20617;-82
2022/07/12 07:46:39;;;;;;;3.60;3.30;;;;;;;17.12;76.48;101878.88;5073031;28;20210;-79
2022/07/12 07:49:05;;;;;;;2.97;2.77;;;;;;;16.96;76.26;101891.53;5068026;28;20740;-77
2022/07/12 07:51:32;;;;;;;3.57;3.27;;;;;;;16.85;76.88;101892.66;5074788;28;20259;-76
2022/07/12 07:54:00;;;;;;;5.43;3.30;;;;;;;16.95;76.41;101885.41;5074577;28;20579;-76
2022/07/12 07:56:26;;;;;;;3.93;3.63;;;;;;;16.99;75.62;101916.09;5073801;28;20674;-76
2022/07/12 07:58:53;;;;;;;3.50;3.30;;;;;;;17.11;74.01;101943.13;5074531;28;20221;-76
2022/07/12 08:01:19;;;;;;;3.60;3.40;;;;;;;17.26;74.21;101966.50;5074677;28;20270;-77
2022/07/12 08:03:46;;;;;;;3.80;3.50;;;;;;;17.35;74.39;101952.25;5074737;28;20206;-76
2022/07/12 08:06:12;;;;;;;4.23;3.93;;;;;;;17.39;75.47;101932.78;5074210;28;20201;-76
2022/07/12 08:08:39;;;;;;;4.43;4.13;;;;;;;17.50;75.50;101895.56;5074308;28;20812;-76
2022/07/12 08:11:07;;;;;;;4.47;4.17;;;;;;;17.31;74.54;101938.25;5074273;28;20276;-76
2022/07/12 08:13:33;;;;;;;4.23;3.93;;;;;;;17.21;75.43;101937.59;5074236;28;20878;-76
2022/07/12 08:15:59;;;;;;;5.20;4.77;;;;;;;17.31;76.61;101898.66;5072613;28;20258;-76
2022/07/12 08:18:26;;;;;;;5.20;4.90;;;;;;;17.36;74.53;101924.94;5063231;28;20214;-76
2022/07/12 08:20:52;;;;;;;5.07;4.27;;;;;;;17.58;75.49;101901.53;5074142;28;20690;-76
2022/07/12 08:23:19;;;;;;;4.83;4.53;;;;;;;17.70;75.13;101895.97;5074412;28;20255;-76
2022/07/12 08:25:45;;;;;;;4.50;4.20;;;;;;;17.80;74.38;101902.72;5074024;28;20200;-77
2022/07/12 08:28:13;;;;;;;4.93;4.63;;;;;;;17.91;73.41;101954.44;5073960;28;20222;-76
2022/07/12 08:30:40;;;;;;;4.17;3.90;;;;;;;17.99;73.95;101936.63;5074273;28;20700;-77
2022/07/12 08:33:06;;;;;;;4.67;4.37;;;;;;;17.97;72.73;101984.22;5074042;28;20204;-76
2022/07/12 08:35:32;;;;;;;4.97;4.67;;;;;;;18.11;72.41;101978.59;5073954;28;20217;-76
2022/07/12 08:37:59;;;;;;;4.73;4.43;;;;;;;18.18;71.66;101988.09;5074124;28;20228;-76
2022/07/12 08:40:25;;;;;;;4.40;4.10;;;;;;;18.23;71.25;102017.03;5073963;28;20563;-77
2022/07/12 08:42:52;;;;;;;4.47;4.07;;;;;;;18.25;71.40;102028.44;5073566;28;20209;-76
2022/07/12 08:45:19;;;;;;;4.77;4.23;;;;;;;18.18;69.59;102040.97;5073544;28;20596;-76
2022/07/12 08:47:46;;;;;;;4.70;4.40;;;;;;;18.22;68.51;102076.13;5065418;28;20228;-76
2022/07/12 08:50:16;;;;;;;3.93;3.73;;;;;;;18.19;69.42;102114.03;5069163;28;20254;-76
2022/07/12 08:52:45;;;;;;;4.47;4.17;;;;;;;18.25;69.30;102089.25;5073350;28;20209;-76
2022/07/12 08:55:17;;;;;;;4.53;4.17;;;;;;;18.33;68.42;102108.44;5072987;28;20205;-77
2022/07/12 08:57:44;;;;;;;4.47;4.07;;;;;;;18.43;68.32;102109.06;5073548;28;20253;-76
2022/07/12 09:00:13;;;;;;;3.87;3.63;;;;;;;18.50;68.39;102089.50;5073647;28;20197;-77
2022/07/12 09:02:48;;;;;;;3.93;3.60;;;;;;;18.55;67.54;102118.47;5073706;28;20214;-76
2022/07/12 09:05:16;;;;;;;3.83;3.60;;;;;;;18.60;68.84;102121.88;5073462;28;20209;-77
2022/07/12 09:07:43;;;;;;;4.17;3.93;;;;;;;18.42;68.42;102102.94;5073435;28;20229;-76
2022/07/12 09:10:11;;;;;;;4.20;3.90;;;;;;;18.45;68.45;102104.63;5073173;28;20232;-76
2022/07/12 09:12:38;;;;;;;4.30;3.90;;;;;;;18.60;69.37;102058.41;5073156;28;20244;-76
2022/07/12 09:15:15;;;;;;;4.40;4.10;;;;;;;18.73;68.41;102051.88;5072961;28;20698;-77
2022/07/12 09:17:46;;;;;;;4.20;3.90;;;;;;;18.82;68.00;102064.88;5065654;28;20234;-76
2022/07/12 09:20:15;;;;;;;3.60;3.33;;;;;;;18.92;67.86;102052.25;5068472;28;20624;-77
2022/07/12 09:22:53;;;;;;;4.27;3.87;;;;;;;19.02;68.44;102074.03;5073303;28;20620;-77
2022/07/12 09:25:19;;;;;;;4.73;3.33;;;;;;;19.12;68.19;102072.00;5073025;28;20243;-77
2022/07/12 09:27:52;;;;;;;3.17;2.97;;;;;;;19.10;67.06;102089.72;5072758;28;20226;-77
2022/07/12 09:30:19;;;;;;;3.10;2.90;;;;;;;19.18;67.88;102103.59;5073090;28;20284;-77
2022/07/12 09:38:25;;;;;;;3.20;3.00;;;;;;;19.35;63.19;102246.13;5072678;28;20228;-76
2022/07/12 09:40:52;;;;;;;3.30;3.10;;;;;;;19.46;63.88;102230.78;5072782;28;20203;-76
2022/07/12 09:43:20;;;;;;;3.57;3.27;;;;;;;19.50;63.58;102199.81;5072255;28;20218;-76
2022/07/12 09:45:48;;;;;;;3.90;3.70;;;;;;;19.59;63.72;102202.19;5072537;28;20267;-77
2022/07/12 09:48:15;;;;;;;2.97;2.77;;;;;;;19.58;63.33;102201.34;5056486;28;20227;-77
2022/07/12 09:50:47;;;;;;;3.27;3.00;;;;;;;19.68;62.84;102212.50;5071785;28;20248;-77
2022/07/12 09:53:20;;;;;;;3.37;2.97;;;;;;;19.77;65.47;102177.84;5072411;28;20212;-76
2022/07/12 09:55:52;;;;;;;3.50;3.17;;;;;;;19.86;64.42;102160.81;5072179;28;20217;-76
2022/07/12 09:58:24;;;;;;;2.97;2.80;;;;;;;19.95;64.65;102139.31;5072326;28;20227;-75
2022/07/12 10:00:52;;;;;;;3.20;3.00;;;;;;;19.93;63.05;102183.56;5072396;28;20211;-76
2022/07/12 10:03:22;;;;;;;3.22;3.03;;;;;;;20.02;63.49;102177.97;5072107;28;20839;-74
2022/07/12 10:05:52;;;;;;;2.60;2.50;;;;;;;20.17;63.74;102155.41;5071546;28;20204;-75
2022/07/12 10:08:20;;;;;;;3.10;2.90;;;;;;;20.23;62.82;102196.78;5072176;28;20241;-75
2022/07/12 10:10:47;;;;;;;3.17;2.97;;;;;;;20.32;61.60;102193.00;5071836;28;20631;-75
2022/07/12 10:13:14;;;;;;;2.60;2.50;;;;;;;20.24;58.86;102241.81;5071970;28;20207;-75
2022/07/12 10:15:43;;;;;;;2.30;2.20;;;;;;;20.32;59.09;102272.56;5071911;28;20218;-74
2022/07/12 10:18:16;;;;;;;2.30;2.13;;;;;;;20.41;58.70;102302.28;5060534;28;20260;-75
2022/07/12 10:20:44;;;;;;;2.17;2.07;;;;;;;20.53;58.75;102300.19;5071247;28;20279;-75
2022/07/12 10:23:34;;;;;;;2.27;2.17;;;;;;;20.55;57.38;102323.09;5066311;28;20213;-77
2022/07/12 10:26:01;;;;;;;2.47;2.30;;;;;;;20.74;59.77;102299.56;5053750;28;20690;-77
2022/07/12 10:28:55;;;;;;;3.00;2.73;;;;;;;20.81;59.26;102257.75;5052124;28;20239;-77
2022/07/12 10:31:24;;;;;;;2.83;2.43;;;;;;;20.98;58.47;102243.94;5063666;28;20268;-76
2022/07/12 10:34:00;;;;;;;2.23;2.13;;;;;;;21.06;57.72;102305.59;5072003;28;20677;-76
2022/07/12 10:36:27;;;;;;;2.23;2.13;;;;;;;21.22;56.90;102306.81;5071791;28;20261;-76
2022/07/12 10:39:13;;;;;;;2.20;2.10;;;;;;;21.34;56.92;102316.16;5071691;28;20593;-76
2022/07/12 10:41:42;;;;;;;2.40;2.20;;;;;;;21.33;55.63;102316.25;5071323;28;20290;-76
2022/07/12 10:44:08;;;;;;;2.63;2.43;;;;;;;21.37;56.20;102326.69;5071971;28;20208;-76
2022/07/12 10:46:36;;;;;;;2.40;2.30;;;;;;;21.43;55.74;102346.91;5071663;28;20285;-76
2022/07/12 10:49:24;;;;;;;2.40;2.30;;;;;;;21.51;55.50;102314.78;5071700;28;20239;-76
2022/07/12 10:52:29;;;;;;;1.93;1.63;;;;;;;21.55;54.94;102356.25;5071820;28;20709;-76
2022/07/12 10:55:19;;;;;;;2.03;1.93;;;;;;;21.56;53.45;102347.34;5048527;28;20632;-75
2022/07/12 10:57:50;;;;;;;1.90;1.80;;;;;;;21.64;53.91;102363.91;5056098;28;20236;-75
2022/07/12 11:00:17;;;;;;;5.27;2.00;;;;;;;21.85;53.64;102341.00;5051105;28;20204;-75
2022/07/12 11:02:43;;;;;;;2.17;2.07;;;;;;;21.92;53.16;102345.19;5051116;28;20204;-75
2022/07/12 11:05:10;;;;;;;1.97;1.87;;;;;;;21.91;53.77;102366.53;5050974;28;20201;-75
2022/07/12 11:07:37;;;;;;;2.00;1.90;;;;;;;22.08;53.58;102328.66;5055104;28;20228;-75
2022/07/12 11:10:05;;;;;;;2.10;2.00;;;;;;;22.16;52.94;102342.53;5053111;28;20857;-75
2022/07/12 11:12:33;;;;;;;2.10;2.00;;;;;;;22.37;53.82;102338.25;5051054;28;20279;-75
2022/07/12 11:15:00;;;;;;;1.73;1.63;;;;;;;22.38;52.86;102370.13;5051054;28;20258;-75
2022/07/12 11:17:27;;;;;;;2.03;1.93;;;;;;;22.48;52.09;102343.16;5050672;28;20204;-76
2022/07/12 11:20:05;;;;;;;1.87;1.77;;;;;;;22.57;50.76;102350.78;5055319;28;20209;-75
2022/07/12 11:22:33;;;;;;;1.90;1.80;;;;;;;22.48;50.17;102423.00;5062666;28;20235;-75
2022/07/12 11:25:00;;;;;;;1.83;1.73;;;;;;;22.45;49.03;102445.25;5075288;28;20219;-76
2022/07/12 11:27:27;;;;;;;1.93;1.83;;;;;;;22.54;50.66;102444.94;5069642;28;20208;-76
2022/07/12 11:30:01;;;;;;;1.90;1.80;;;;;;;22.88;49.83;102374.41;5068020;28;20231;-75
2022/07/12 11:32:35;;;;;;;1.80;1.70;;;;;;;22.85;48.45;102413.59;5075190;28;20207;-75
2022/07/12 11:35:02;;;;;;;1.67;1.57;;;;;;;23.26;49.54;102413.78;5075002;28;20208;-75
2022/07/12 11:37:30;;;;;;;2.10;1.70;;;;;;;23.56;47.56;102411.66;5075095;28;20204;-76